createdAt,value
2022-12-31T00:00:08.327Z,10.68
2022-12-31T00:02:35.316Z,10.48
2022-12-31T00:05:02.275Z,10.32
2022-12-31T00:07:28.876Z,9.30
2022-12-31T00:09:55.420Z,8.00
2022-12-31T00:12:21.949Z,10.80
2022-12-31T00:14:48.457Z,10.20
2022-12-31T00:17:15.073Z,10.70
2022-12-31T00:19:41.606Z,10.63
2022-12-31T00:22:08.121Z,9.48
2022-12-31T00:24:36.011Z,10.90
2022-12-31T00:27:02.823Z,9.93
2022-12-31T00:29:29.425Z,9.27
2022-12-31T00:31:56.235Z,7.50
2022-12-31T00:34:22.760Z,10.65
2022-12-31T00:36:49.481Z,7.85
2022-12-31T00:39:16.026Z,7.38
2022-12-31T00:41:44.310Z,8.15
2022-12-31T00:44:14.279Z,7.97
2022-12-31T00:49:06.880Z,8.43
2022-12-31T00:51:33.421Z,9.50
2022-12-31T00:53:59.982Z,7.18
2022-12-31T00:56:29.306Z,8.07
2022-12-31T00:58:56.543Z,7.75
2022-12-31T01:01:28.909Z,9.32
2022-12-31T01:03:59.519Z,8.55
2022-12-31T01:06:26.730Z,6.65
2022-12-31T01:08:55.794Z,7.95
2022-12-31T01:11:23.556Z,8.02
2022-12-31T01:14:02.068Z,7.78
2022-12-31T01:16:48.109Z,8.18
2022-12-31T01:19:26.491Z,8.48
2022-12-31T01:21:53.601Z,7.57
2022-12-31T01:24:20.495Z,8.20
2022-12-31T01:26:47.457Z,6.35
2022-12-31T01:29:14.781Z,7.22
2022-12-31T01:31:41.503Z,6.65
2022-12-31T01:34:08.690Z,8.05
2022-12-31T01:36:36.861Z,8.27
2022-12-31T01:39:05.799Z,6.70
2022-12-31T01:41:34.998Z,7.07
2022-12-31T01:44:13.546Z,7.03
2022-12-31T01:46:47.476Z,6.78
2022-12-31T01:49:26.526Z,7.95
2022-12-31T01:52:01.899Z,7.38
2022-12-31T01:54:31.211Z,7.03
2022-12-31T01:56:58.428Z,7.07
2022-12-31T01:59:28.388Z,6.18
2022-12-31T02:01:55.654Z,6.20
2022-12-31T02:04:25.361Z,6.05
2022-12-31T02:07:18.037Z,6.30
2022-12-31T02:09:44.810Z,5.65
2022-12-31T02:12:11.870Z,6.18
2022-12-31T02:14:43.182Z,5.78
2022-12-31T02:17:31.177Z,5.30
2022-12-31T02:20:27.876Z,4.57
2022-12-31T02:22:54.330Z,5.10
2022-12-31T02:25:56.344Z,5.03
2022-12-31T02:28:53.970Z,4.70
2022-12-31T02:31:35.905Z,4.38
2022-12-31T02:34:11.738Z,4.60
2022-12-31T02:36:43.730Z,5.10
2022-12-31T02:39:12.469Z,4.60
2022-12-31T02:41:51.293Z,4.40
2022-12-31T02:44:35.403Z,4.55
2022-12-31T02:47:07.885Z,4.32
2022-12-31T02:49:50.717Z,4.85
2022-12-31T02:52:32.193Z,4.45
2022-12-31T02:55:25.206Z,4.75
2022-12-31T02:58:01.197Z,4.18
2022-12-31T03:00:49.526Z,4.03
2022-12-31T03:03:17.157Z,4.10
2022-12-31T03:05:46.788Z,4.25
2022-12-31T03:08:21.297Z,4.40
2022-12-31T03:10:48.125Z,3.85
2022-12-31T03:13:18.506Z,4.10
2022-12-31T03:15:55.209Z,4.30
2022-12-31T03:18:41.715Z,4.57
2022-12-31T03:21:31.689Z,5.13
2022-12-31T03:24:16.531Z,4.63
2022-12-31T03:26:43.034Z,4.53
2022-12-31T03:29:09.529Z,4.15
2022-12-31T03:31:36.062Z,4.47
2022-12-31T03:34:02.613Z,5.25
2022-12-31T03:36:29.124Z,5.10
2022-12-31T03:38:55.691Z,4.60
2022-12-31T03:41:22.256Z,4.70
2022-12-31T03:43:48.731Z,4.70
2022-12-31T03:46:15.303Z,4.20
2022-12-31T03:48:41.850Z,4.43
2022-12-31T03:51:08.785Z,4.75
2022-12-31T03:53:35.777Z,4.75
2022-12-31T03:56:03.446Z,5.10
2022-12-31T03:58:30.083Z,4.57
2022-12-31T04:00:56.791Z,4.38
2022-12-31T04:03:23.530Z,4.80
2022-12-31T04:05:55.142Z,4.47
2022-12-31T04:08:21.674Z,5.20
2022-12-31T04:10:48.214Z,4.60
2022-12-31T04:13:14.718Z,4.50
2022-12-31T04:15:41.252Z,4.70
2022-12-31T04:18:07.886Z,4.43
2022-12-31T04:20:34.383Z,4.13
2022-12-31T04:23:00.913Z,4.18
2022-12-31T04:25:27.489Z,4.40
2022-12-31T04:27:54.065Z,4.57
2022-12-31T04:30:20.609Z,4.57
2022-12-31T04:32:47.170Z,4.45
2022-12-31T04:35:13.738Z,4.55
2022-12-31T04:37:40.341Z,4.50
2022-12-31T04:40:08.438Z,4.63
2022-12-31T04:42:35.905Z,4.40
2022-12-31T04:45:02.700Z,3.95
2022-12-31T04:47:29.252Z,4.28
2022-12-31T04:49:55.779Z,4.45
2022-12-31T04:52:22.784Z,4.10
2022-12-31T04:54:49.334Z,4.32
2022-12-31T04:57:15.902Z,4.10
2022-12-31T04:59:42.397Z,4.15
2022-12-31T05:02:09.789Z,3.65
2022-12-31T05:04:36.428Z,4.13
2022-12-31T05:07:03.179Z,3.97
2022-12-31T05:09:29.873Z,4.22
2022-12-31T05:11:56.499Z,3.40
2022-12-31T05:14:23.034Z,3.70
2022-12-31T05:16:49.631Z,3.30
2022-12-31T05:19:16.219Z,3.63
2022-12-31T05:21:42.794Z,3.47
2022-12-31T05:24:09.423Z,3.35
2022-12-31T05:26:35.893Z,3.40
2022-12-31T05:29:02.458Z,3.40
2022-12-31T05:31:29.030Z,3.22
2022-12-31T05:33:55.626Z,3.78
2022-12-31T05:36:22.273Z,3.80
2022-12-31T05:38:48.824Z,3.28
2022-12-31T05:41:15.365Z,3.60
2022-12-31T05:43:41.885Z,3.30
2022-12-31T05:46:08.696Z,3.70
2022-12-31T05:48:35.324Z,3.42
2022-12-31T05:51:01.817Z,3.63
2022-12-31T05:53:28.375Z,3.95
2022-12-31T05:55:54.954Z,3.63
2022-12-31T05:58:21.445Z,4.18
2022-12-31T06:00:47.995Z,3.50
2022-12-31T06:03:14.695Z,3.50
2022-12-31T06:05:44.432Z,3.60
2022-12-31T06:08:12.190Z,3.42
2022-12-31T06:10:39.833Z,3.75
2022-12-31T06:13:07.130Z,3.20
2022-12-31T06:15:33.694Z,3.45
2022-12-31T06:18:00.243Z,3.58
2022-12-31T06:20:26.759Z,3.72
2022-12-31T06:22:53.242Z,3.50
2022-12-31T06:25:19.761Z,3.50
2022-12-31T06:27:46.345Z,3.47
2022-12-31T06:30:13.602Z,3.50
2022-12-31T06:32:40.837Z,3.88
2022-12-31T06:35:08.323Z,3.60
2022-12-31T06:37:34.927Z,3.50
2022-12-31T06:40:01.620Z,3.85
2022-12-31T06:42:31.150Z,3.40
2022-12-31T06:45:00.518Z,3.60
2022-12-31T06:47:27.084Z,3.80
2022-12-31T06:49:53.915Z,3.85
2022-12-31T06:52:21.069Z,3.50
2022-12-31T06:54:48.362Z,3.72
2022-12-31T06:57:15.190Z,3.80
2022-12-31T06:59:42.073Z,3.65
2022-12-31T07:02:27.111Z,3.50
2022-12-31T07:05:05.117Z,3.70
2022-12-31T07:07:55.447Z,3.45
2022-12-31T07:10:52.647Z,3.75
2022-12-31T07:13:35.870Z,3.80
2022-12-31T07:16:14.100Z,3.42
2022-12-31T07:19:01.891Z,3.80
2022-12-31T07:21:35.886Z,3.67
2022-12-31T07:24:03.313Z,3.67
2022-12-31T07:26:49.937Z,3.50
2022-12-31T07:29:40.392Z,3.30
2022-12-31T07:32:56.150Z,3.53
2022-12-31T07:35:54.070Z,3.47
2022-12-31T07:38:26.308Z,3.40
2022-12-31T07:41:16.283Z,3.58
2022-12-31T07:43:53.628Z,3.30
2022-12-31T07:46:50.738Z,3.55
2022-12-31T07:56:41.723Z,3.40
2022-12-31T07:59:32.039Z,3.13
2022-12-31T08:02:23.183Z,3.15
2022-12-31T08:05:20.497Z,2.88
2022-12-31T08:08:21.097Z,2.92
2022-12-31T08:11:31.073Z,3.13
2022-12-31T08:14:01.199Z,2.85
2022-12-31T08:16:28.125Z,2.67
2022-12-31T08:18:55.000Z,3.25
2022-12-31T08:21:53.186Z,2.80
2022-12-31T08:24:35.894Z,2.85
2022-12-31T08:27:12.088Z,2.92
2022-12-31T08:29:51.895Z,3.42
2022-12-31T08:32:26.160Z,3.10
2022-12-31T08:35:23.396Z,2.97
2022-12-31T08:38:13.136Z,3.20
2022-12-31T08:40:59.415Z,3.40
2022-12-31T08:43:37.730Z,3.40
2022-12-31T08:46:07.769Z,3.20
2022-12-31T08:48:40.766Z,3.20
2022-12-31T08:51:15.207Z,3.20
2022-12-31T08:53:41.936Z,2.83
2022-12-31T08:56:21.280Z,3.00
2022-12-31T08:58:58.009Z,2.90
2022-12-31T09:01:28.769Z,3.13
2022-12-31T09:04:30.117Z,3.22
2022-12-31T09:07:01.239Z,3.33
2022-12-31T09:09:51.097Z,2.90
2022-12-31T09:12:28.419Z,2.90
2022-12-31T09:15:07.125Z,2.83
2022-12-31T09:17:45.759Z,2.72
2022-12-31T09:20:42.304Z,2.80
2022-12-31T09:23:10.537Z,2.40
2022-12-31T09:25:49.553Z,2.55
2022-12-31T09:28:39.474Z,2.40
2022-12-31T09:31:11.511Z,2.58
2022-12-31T09:34:12.642Z,2.50
2022-12-31T09:36:48.459Z,2.50
2022-12-31T09:39:42.502Z,2.40
2022-12-31T09:42:18.358Z,2.38
2022-12-31T09:45:18.577Z,2.60
2022-12-31T09:48:43.205Z,2.50
2022-12-31T09:51:40.240Z,2.75
2022-12-31T09:57:17.753Z,2.50
2022-12-31T09:59:54.407Z,2.63
2022-12-31T10:02:48.862Z,2.50
2022-12-31T10:05:59.566Z,2.78
2022-12-31T10:08:37.556Z,2.80
2022-12-31T10:11:45.872Z,2.80
2022-12-31T10:14:27.214Z,2.80
2022-12-31T10:17:38.707Z,3.40
2022-12-31T10:20:24.409Z,3.20
2022-12-31T10:23:02.917Z,3.10
2022-12-31T10:26:10.811Z,2.97
2022-12-31T10:28:56.289Z,3.22
2022-12-31T10:32:01.681Z,3.03
2022-12-31T10:35:01.134Z,3.20
2022-12-31T10:37:29.994Z,2.97
2022-12-31T10:39:59.802Z,3.20
2022-12-31T10:43:10.135Z,3.15
2022-12-31T10:46:22.653Z,3.20
2022-12-31T10:49:12.561Z,2.95
2022-12-31T10:52:25.997Z,3.20
2022-12-31T10:55:17.667Z,3.20
2022-12-31T10:58:10.267Z,3.00
2022-12-31T11:01:07.457Z,3.28
2022-12-31T11:04:11.836Z,3.10
2022-12-31T11:06:56.700Z,2.83
2022-12-31T11:09:36.202Z,2.92
2022-12-31T11:12:28.983Z,3.22
2022-12-31T11:15:18.403Z,2.92
2022-12-31T11:18:13.729Z,2.97
2022-12-31T11:20:56.344Z,2.88
2022-12-31T11:23:50.571Z,3.00
2022-12-31T11:26:27.657Z,2.80
2022-12-31T11:29:07.771Z,3.15
2022-12-31T11:32:03.309Z,3.08
2022-12-31T11:34:38.720Z,2.88
2022-12-31T11:37:23.864Z,3.00
2022-12-31T11:40:04.947Z,3.17
2022-12-31T11:42:46.319Z,2.70
2022-12-31T11:45:28.042Z,3.10
2022-12-31T11:48:29.778Z,3.15
2022-12-31T11:53:47.282Z,3.33
2022-12-31T11:56:19.329Z,2.85
2022-12-31T11:58:49.824Z,2.95
2022-12-31T12:01:32.817Z,3.00
2022-12-31T12:03:59.982Z,2.67
2022-12-31T12:06:32.613Z,3.13
2022-12-31T12:09:04.566Z,3.10
2022-12-31T12:11:35.392Z,2.83
2022-12-31T12:14:18.135Z,3.53
2022-12-31T12:16:44.720Z,3.08
2022-12-31T12:19:18.546Z,2.92
2022-12-31T12:21:48.033Z,2.95
2022-12-31T12:24:21.354Z,2.80
2022-12-31T12:26:48.266Z,3.15
2022-12-31T12:29:14.734Z,3.10
2022-12-31T12:31:41.391Z,3.00
2022-12-31T12:34:26.258Z,3.08
2022-12-31T12:36:52.909Z,3.13
2022-12-31T12:39:23.898Z,3.20
2022-12-31T12:42:14.313Z,2.85
2022-12-31T12:44:42.093Z,3.20
2022-12-31T12:47:15.523Z,3.38
2022-12-31T12:49:46.145Z,3.17
2022-12-31T12:52:56.405Z,3.20
2022-12-31T12:55:30.970Z,3.13
2022-12-31T12:58:25.155Z,3.20
2022-12-31T13:01:04.360Z,3.03
2022-12-31T13:04:00.022Z,3.15
2022-12-31T13:06:49.828Z,2.97
2022-12-31T13:09:33.301Z,3.17
2022-12-31T13:12:22.009Z,3.20
2022-12-31T13:15:06.804Z,3.47
2022-12-31T13:18:01.483Z,3.30
2022-12-31T13:20:38.283Z,3.40
2022-12-31T13:23:19.269Z,3.50
2022-12-31T13:26:07.733Z,3.30
2022-12-31T13:28:37.404Z,3.67
2022-12-31T13:31:09.317Z,3.30
2022-12-31T13:33:44.591Z,3.67
2022-12-31T13:36:17.551Z,4.05
2022-12-31T13:38:52.966Z,3.10
2022-12-31T13:41:26.545Z,3.47
2022-12-31T13:44:14.923Z,3.40
2022-12-31T13:47:00.709Z,3.45
2022-12-31T13:49:34.207Z,3.42
2022-12-31T13:52:16.738Z,3.30
2022-12-31T13:55:03.587Z,3.60
2022-12-31T13:57:45.430Z,3.05
2022-12-31T14:00:30.083Z,3.90
2022-12-31T14:03:19.636Z,3.08
2022-12-31T14:05:56.406Z,3.40
2022-12-31T14:08:22.955Z,3.22
2022-12-31T14:11:20.973Z,3.30
2022-12-31T14:14:01.749Z,3.28
2022-12-31T14:16:55.940Z,3.30
2022-12-31T14:19:41.535Z,3.60
2022-12-31T14:22:29.881Z,3.42
2022-12-31T14:25:00.148Z,3.15
2022-12-31T14:27:42.791Z,3.78
2022-12-31T14:30:16.845Z,3.67
2022-12-31T14:33:12.005Z,3.80
2022-12-31T14:35:54.699Z,3.47
2022-12-31T14:38:47.468Z,3.50
2022-12-31T14:41:34.973Z,3.72
2022-12-31T14:44:20.166Z,3.60
2022-12-31T14:47:08.496Z,3.92
2022-12-31T14:49:57.649Z,3.40
2022-12-31T14:52:29.902Z,3.60
2022-12-31T14:55:02.234Z,4.07
2022-12-31T14:58:01.737Z,3.40
2022-12-31T15:00:32.047Z,3.30
2022-12-31T15:03:01.500Z,3.33
2022-12-31T15:05:33.302Z,3.60
2022-12-31T15:08:31.596Z,3.50
2022-12-31T15:10:58.048Z,3.70
2022-12-31T15:13:40.716Z,3.50
2022-12-31T15:16:35.357Z,3.67
2022-12-31T15:19:42.501Z,3.58
2022-12-31T15:22:24.118Z,3.35
2022-12-31T15:24:50.816Z,3.90
2022-12-31T15:27:46.473Z,3.78
2022-12-31T15:30:34.050Z,3.40
2022-12-31T15:33:08.806Z,3.47
2022-12-31T15:35:53.297Z,3.90
2022-12-31T15:38:40.066Z,3.90
2022-12-31T15:41:15.511Z,3.80
2022-12-31T15:44:08.248Z,4.30
2022-12-31T15:46:40.067Z,4.32
2022-12-31T15:49:18.792Z,4.05
2022-12-31T15:51:50.417Z,3.55
2022-12-31T15:54:30.581Z,4.10
2022-12-31T15:56:57.894Z,4.18
2022-12-31T15:59:26.843Z,4.05
2022-12-31T16:01:56.397Z,3.90
2022-12-31T16:04:28.642Z,4.28
2022-12-31T16:07:00.305Z,4.50
2022-12-31T16:09:35.963Z,4.30
2022-12-31T16:12:08.912Z,4.05
2022-12-31T16:14:50.728Z,4.40
2022-12-31T16:17:35.019Z,3.70
2022-12-31T16:20:20.918Z,3.45
2022-12-31T16:22:53.376Z,4.00
2022-12-31T16:25:36.798Z,3.90
2022-12-31T16:28:03.953Z,4.10
2022-12-31T16:30:33.173Z,3.80
2022-12-31T16:33:03.004Z,4.13
2022-12-31T16:35:34.986Z,3.85
2022-12-31T16:38:01.436Z,4.63
2022-12-31T16:40:28.355Z,3.63
2022-12-31T16:42:54.889Z,3.90
2022-12-31T16:45:31.049Z,3.78
2022-12-31T16:48:16.573Z,4.20
2022-12-31T16:50:46.935Z,4.15
2022-12-31T16:53:18.328Z,4.47
2022-12-31T16:55:52.252Z,4.20
2022-12-31T16:58:29.553Z,4.32
2022-12-31T17:01:07.485Z,4.05
2022-12-31T17:03:44.489Z,4.13
2022-12-31T17:06:18.928Z,3.78
2022-12-31T17:08:59.576Z,3.90
2022-12-31T17:11:42.202Z,4.20
2022-12-31T17:14:08.673Z,4.40
2022-12-31T17:16:45.641Z,4.75
2022-12-31T17:19:43.200Z,4.45
2022-12-31T17:22:37.241Z,5.00
2022-12-31T17:25:07.558Z,4.65
2022-12-31T17:27:35.851Z,3.63
2022-12-31T17:30:36.456Z,4.72
2022-12-31T17:33:09.008Z,4.72
2022-12-31T17:35:42.100Z,4.57
2022-12-31T17:38:17.882Z,4.68
2022-12-31T17:40:51.378Z,3.95
2022-12-31T17:43:21.282Z,4.20
2022-12-31T17:45:50.209Z,4.70
2022-12-31T17:48:18.433Z,3.78
2022-12-31T17:50:50.345Z,4.20
2022-12-31T17:53:17.566Z,3.58
2022-12-31T17:55:46.853Z,4.10
2022-12-31T17:58:36.046Z,3.88
2022-12-31T18:01:06.608Z,3.70
2022-12-31T18:03:33.311Z,3.97
2022-12-31T18:06:00.348Z,4.03
2022-12-31T18:08:27.012Z,3.90
2022-12-31T18:10:54.465Z,3.67
2022-12-31T18:13:24.431Z,3.50
2022-12-31T18:15:51.822Z,6.65
2022-12-31T18:18:30.308Z,4.25
2022-12-31T18:21:00.041Z,4.53
2022-12-31T18:23:31.129Z,4.50
2022-12-31T18:25:57.737Z,4.75
2022-12-31T18:28:24.258Z,4.03
2022-12-31T18:30:51.179Z,3.85
2022-12-31T18:33:22.383Z,3.72
2022-12-31T18:36:10.055Z,3.83
2022-12-31T18:38:37.069Z,3.53
2022-12-31T18:41:04.407Z,3.70
2022-12-31T18:43:31.356Z,3.92
2022-12-31T18:45:58.674Z,4.00
2022-12-31T18:48:25.323Z,3.70
2022-12-31T18:50:51.895Z,3.83
2022-12-31T18:53:21.236Z,4.45
2022-12-31T18:55:57.348Z,4.07
2022-12-31T18:58:24.749Z,4.00
2022-12-31T19:00:52.119Z,4.13
2022-12-31T19:03:27.517Z,4.32
2022-12-31T19:05:54.261Z,3.88
2022-12-31T19:08:22.364Z,3.50
2022-12-31T19:10:51.079Z,4.00
2022-12-31T19:13:19.271Z,3.90
2022-12-31T19:15:53.312Z,3.50
2022-12-31T19:18:19.986Z,3.90
2022-12-31T19:20:46.993Z,3.45
2022-12-31T19:23:16.556Z,3.95
2022-12-31T19:25:43.152Z,4.07
2022-12-31T19:28:16.961Z,3.60
2022-12-31T19:30:43.887Z,3.70
2022-12-31T19:33:10.679Z,3.50
2022-12-31T19:35:37.444Z,3.65
2022-12-31T19:38:06.689Z,3.70
2022-12-31T19:40:33.343Z,3.33
2022-12-31T19:42:59.921Z,3.72
2022-12-31T19:45:28.489Z,3.72
2022-12-31T19:47:56.659Z,3.67
2022-12-31T19:50:26.820Z,3.40
2022-12-31T19:52:56.655Z,4.00
2022-12-31T19:55:26.321Z,3.78
2022-12-31T19:57:52.944Z,3.50
2022-12-31T20:00:20.868Z,3.70
2022-12-31T20:02:48.464Z,3.88
2022-12-31T20:05:16.356Z,4.38
2022-12-31T20:07:43.147Z,3.90
2022-12-31T20:10:10.986Z,3.38
2022-12-31T20:12:44.182Z,3.80
2022-12-31T20:15:11.801Z,3.67
2022-12-31T20:17:38.400Z,3.70
2022-12-31T20:20:06.886Z,3.80
2022-12-31T20:22:33.643Z,3.47
2022-12-31T20:25:00.429Z,3.40
2022-12-31T20:27:27.020Z,3.60
2022-12-31T20:29:53.530Z,3.03
2022-12-31T20:32:20.202Z,3.58
2022-12-31T20:34:47.147Z,4.53
2022-12-31T20:37:13.741Z,3.70
2022-12-31T20:39:40.273Z,3.28
2022-12-31T20:42:07.089Z,3.90
2022-12-31T20:44:33.907Z,3.95
2022-12-31T20:47:00.986Z,4.18
2022-12-31T20:50:00.962Z,3.78
2022-12-31T20:52:13.941Z,3.95
2022-12-31T20:54:40.471Z,3.90
2022-12-31T20:57:06.999Z,3.70
2022-12-31T20:59:33.507Z,6.55
2022-12-31T21:04:47.117Z,3.60
2022-12-31T21:07:13.819Z,3.55
2022-12-31T21:09:40.340Z,3.83
2022-12-31T21:12:25.917Z,3.90
2022-12-31T21:14:52.423Z,3.40
2022-12-31T21:17:19.043Z,3.72
2022-12-31T21:19:45.666Z,3.70
2022-12-31T21:22:12.428Z,3.60
2022-12-31T21:24:39.255Z,3.60
2022-12-31T21:27:06.195Z,4.20
2022-12-31T21:29:34.888Z,3.50
2022-12-31T21:32:02.490Z,3.50
2022-12-31T21:34:29.066Z,4.10
2022-12-31T21:36:55.593Z,3.80
2022-12-31T21:41:53.559Z,4.13
2022-12-31T21:44:25.597Z,4.15
2022-12-31T21:47:34.853Z,4.30
2022-12-31T21:50:02.881Z,4.00
2022-12-31T21:52:34.138Z,4.30
2022-12-31T21:55:20.591Z,4.25
2022-12-31T21:58:24.173Z,3.80
2022-12-31T22:00:54.445Z,5.18
2022-12-31T22:03:25.804Z,4.20
2022-12-31T22:06:14.192Z,4.40
2022-12-31T22:08:42.736Z,4.68
2022-12-31T22:11:10.953Z,4.78
2022-12-31T22:13:38.832Z,4.32
2022-12-31T22:16:07.082Z,4.25
2022-12-31T22:18:35.835Z,4.50
2022-12-31T22:21:20.798Z,4.60
2022-12-31T22:23:58.820Z,4.30
2022-12-31T22:26:29.011Z,3.97
2022-12-31T22:28:59.341Z,3.97
2022-12-31T22:31:30.049Z,4.10
2022-12-31T22:33:57.989Z,3.75
2022-12-31T22:36:24.906Z,3.85
2022-12-31T22:38:55.969Z,3.80
2022-12-31T22:41:22.968Z,3.70
2022-12-31T22:43:58.485Z,3.95
2022-12-31T22:46:29.163Z,3.42
2022-12-31T22:48:58.116Z,3.40
2022-12-31T22:51:24.644Z,3.85
2022-12-31T22:53:51.228Z,4.32
2022-12-31T22:56:19.439Z,5.18
2022-12-31T22:58:46.405Z,6.05
2022-12-31T23:01:24.567Z,7.05
2022-12-31T23:03:53.077Z,71.10
2022-12-31T23:06:21.340Z,62.33
2022-12-31T23:09:06.597Z,73.68
2022-12-31T23:11:34.831Z,85.35
2022-12-31T23:14:21.219Z,37.38
2022-12-31T23:17:31.077Z,25.23
2022-12-31T23:20:11.553Z,20.58
2022-12-31T23:22:56.438Z,21.67
2022-12-31T23:25:24.458Z,22.60
2022-12-31T23:27:51.012Z,19.90
2022-12-31T23:30:17.585Z,17.75
2022-12-31T23:32:44.097Z,16.70
2022-12-31T23:35:10.591Z,16.15
2022-12-31T23:37:37.068Z,18.88
2022-12-31T23:40:04.116Z,17.33
2022-12-31T23:42:30.666Z,16.17
2022-12-31T23:44:57.286Z,16.90
2022-12-31T23:47:23.866Z,18.35
2022-12-31T23:49:50.380Z,16.38
2022-12-31T23:52:16.957Z,14.75
2022-12-31T23:54:43.709Z,14.52
2022-12-31T23:57:10.641Z,13.20
2022-12-31T23:59:37.153Z,12.60
